Información del aeropuerto LEDA

Información de pista
Frecuencias del aeropuerto
Radioayudas del aeropuerto
Información meteorológica del aeropuerto y NOTAM
ADDS - METARS form results

(0101 UTC 20 September 2020)
Data provider http://aviationweather.gov/metar/data/
 
METAR text: LEDA 200030Z AUTO 26007KT CAVOK 16/15 Q1016
Conditions at: LEDA (LLEIDA-ALGUAIRE , ES) observed 0030 UTC 20 September 2020
Temperature: 16.0°C (61°F)
Dewpoint: 15.0°C (59°F) [RH = 94%]
Pressure (altimeter): 30.00 inches Hg (1016.0 mb)
Winds: from the W (260 degrees) at 8 MPH (7 knots; 3.6 m/s)
Visibility: 6 or more miles (10+ km)
Ceiling: ceiling and visibility are OK
Clouds: unknown
Weather: no significant weather observed at this time